createdAt,value
2018-10-19T00:02:41.418Z,15.4
2018-10-19T00:12:40.706Z,15.4
2018-10-19T00:22:39.871Z,15.4
2018-10-19T00:32:39.091Z,15.3
2018-10-19T00:42:38.315Z,15.3
2018-10-19T00:52:37.535Z,15.1
2018-10-19T01:02:36.768Z,15.1
2018-10-19T01:12:35.980Z,15
2018-10-19T01:22:35.204Z,15
2018-10-19T01:32:34.424Z,14.9
2018-10-19T01:42:33.650Z,14.9
2018-10-19T01:52:32.869Z,14.8
2018-10-19T02:02:32.082Z,14.8
2018-10-19T02:12:31.305Z,14.7
2018-10-19T02:22:30.527Z,14.6
2018-10-19T02:32:29.762Z,14.6
2018-10-19T02:42:28.977Z,14.6
2018-10-19T02:52:28.197Z,14.6
2018-10-19T03:02:27.422Z,14.6
2018-10-19T03:12:26.637Z,14.5
2018-10-19T03:22:25.866Z,14.4
2018-10-19T03:32:25.085Z,14.4
2018-10-19T03:42:24.315Z,14.4
2018-10-19T03:52:23.536Z,14.4
2018-10-19T04:02:22.757Z,13.7
2018-10-19T04:12:21.976Z,13
2018-10-19T04:22:21.205Z,12.6
2018-10-19T04:32:20.438Z,12.4
2018-10-19T04:42:19.762Z,12.3
2018-10-19T04:52:18.871Z,12.3
2018-10-19T05:02:18.103Z,12.4
2018-10-19T05:12:17.335Z,12.6
2018-10-19T05:22:16.537Z,12.9
2018-10-19T05:32:15.843Z,13.4
2018-10-19T05:42:14.987Z,14.2
2018-10-19T05:52:14.324Z,14.8
2018-10-19T06:02:13.489Z,15.7
2018-10-19T06:12:12.652Z,16.4
2018-10-19T06:22:11.881Z,16.9
2018-10-19T06:32:11.188Z,18.4
2018-10-19T06:42:10.317Z,20.4
2018-10-19T06:52:09.543Z,22.2
2018-10-19T07:02:08.841Z,24.4
2018-10-19T07:12:08.000Z,25.9
2018-10-19T07:22:07.212Z,27.6
2018-10-19T07:32:06.470Z,28.6
2018-10-19T07:42:05.733Z,29.4
2018-10-19T07:52:04.877Z,29.3
2018-10-19T08:02:04.144Z,30.2
2018-10-19T08:12:03.326Z,29.6
2018-10-19T08:22:02.545Z,30.6
2018-10-19T08:32:01.806Z,31.4
2018-10-19T08:42:00.997Z,31.9
2018-10-19T08:52:00.268Z,32.2
2018-10-19T09:01:59.445Z,32
2018-10-19T09:11:58.670Z,31.1
2018-10-19T09:21:57.895Z,30.9
2018-10-19T09:31:57.113Z,30.2
2018-10-19T09:41:56.340Z,29.9
2018-10-19T09:51:55.558Z,29.8
2018-10-19T10:01:54.787Z,29.7
2018-10-19T10:11:54.003Z,29.5
2018-10-19T10:21:53.254Z,29
2018-10-19T10:31:52.498Z,28.6
2018-10-19T10:41:51.676Z,28.3
2018-10-19T10:51:50.899Z,28
2018-10-19T11:01:50.168Z,27.4
2018-10-19T11:11:49.342Z,27.1
2018-10-19T11:21:48.566Z,26.8
2018-10-19T11:31:47.833Z,25.9
2018-10-19T11:41:47.012Z,25.4
2018-10-19T11:51:46.231Z,25
2018-10-19T12:01:45.451Z,24.8
2018-10-19T12:11:44.677Z,24.4
2018-10-19T12:21:43.903Z,23.9
2018-10-19T12:31:43.123Z,23.6
2018-10-19T12:41:42.343Z,23.6
2018-10-19T12:51:41.566Z,23.4
2018-10-19T13:01:40.785Z,23.1
2018-10-19T13:11:40.015Z,22.8
2018-10-19T13:21:39.228Z,22.8
2018-10-19T13:31:38.451Z,22.9
2018-10-19T13:41:37.710Z,22.6
2018-10-19T13:51:36.899Z,22.4
2018-10-19T14:01:36.121Z,22.2
2018-10-19T14:11:35.343Z,22.1
2018-10-19T14:21:34.569Z,21.8
2018-10-19T14:31:33.786Z,21.4
2018-10-19T14:41:33.004Z,21.2
2018-10-19T14:51:32.229Z,20.9
2018-10-19T15:01:31.447Z,20.6
2018-10-19T15:11:30.929Z,20.4
2018-10-19T15:21:29.895Z,20.1
2018-10-19T15:31:29.112Z,19.9
2018-10-19T15:41:28.331Z,19.6
2018-10-19T15:51:27.555Z,19.3
2018-10-19T16:01:26.780Z,19.1
2018-10-19T16:11:25.999Z,18.9
2018-10-19T16:21:25.223Z,18.8
2018-10-19T16:31:24.446Z,18.6
2018-10-19T16:41:23.671Z,18.4
2018-10-19T16:51:22.899Z,18.4
2018-10-19T17:01:22.117Z,18.4
2018-10-19T17:11:21.342Z,18.4
2018-10-19T17:21:20.570Z,18.3
2018-10-19T17:31:19.842Z,18.4
2018-10-19T17:41:19.016Z,18.4
2018-10-19T17:51:18.299Z,18.3
2018-10-19T18:01:17.466Z,18.3
2018-10-19T18:11:16.691Z,18.4
2018-10-19T18:21:16.125Z,18.3
2018-10-19T18:31:15.145Z,18.3
2018-10-19T18:41:14.533Z,18.3
2018-10-19T18:51:13.598Z,18.3
2018-10-19T19:01:12.819Z,18.3
2018-10-19T19:11:12.091Z,18.3
2018-10-19T19:21:11.268Z,18.1
2018-10-19T19:31:10.494Z,18.1
2018-10-19T19:41:09.775Z,18
2018-10-19T19:51:08.949Z,17.9
2018-10-19T20:01:08.172Z,17.9
2018-10-19T20:11:07.476Z,17.9
2018-10-19T20:21:06.627Z,17.9
2018-10-19T20:31:05.852Z,17.8
2018-10-19T20:41:05.116Z,17.7
2018-10-19T20:51:04.302Z,17.6
2018-10-19T21:01:03.525Z,17.4
2018-10-19T21:11:02.767Z,17.2
2018-10-19T21:21:01.976Z,17.1
2018-10-19T21:31:01.200Z,16.9
2018-10-19T21:41:00.464Z,16.7
2018-10-19T21:50:59.651Z,16.4
2018-10-19T22:00:58.873Z,16.3
2018-10-19T22:10:58.099Z,16.1
2018-10-19T22:20:57.318Z,16
2018-10-19T22:30:56.588Z,15.9
2018-10-19T22:40:55.792Z,15.8
2018-10-19T22:50:54.995Z,15.7
2018-10-19T23:00:54.279Z,15.6
2018-10-19T23:10:53.465Z,15.5
2018-10-19T23:20:52.663Z,15.3
2018-10-19T23:30:51.882Z,15.2
2018-10-19T23:40:51.103Z,15.1
2018-10-19T23:50:50.326Z,14.9
